Blountstown, Florida
Current Conditions -  °F | °C
As of 2:53 PM on Friday 31 Oct 2014 (Local Time) from KMAI Reporting Station
Clear Clear  
Wind Chill: 74°   Ceiling: Unl
Heat Index: 74°   Visibility: 10mi
Dew Point: 41°   Wind: 12mph
Humidity: 30%   Direction: 290°WNW
Pressure: 29.87"   Gusts: NA
Location:  30.44°N, 85.05°W
Report Text: KMAI 311953Z AUTO 29010KT 10SM CLR 23/05 A2987 RMK AO2 SLP114 T02330050 $
Loading
Personal Weather Stations






























Interactive Weather Map New forecast layout! Learn more

10-Day Weather Forecast

Advertisements
Track Severe Weather on mobile